Time,TemperatureF,DewpointF,PressureIn,WindDirection,WindDirectionDegrees,WindSpeedMPH,WindSpeedGustMPH,Humidity,HourlyPrecipIn,Conditions,Clouds,dailyrainin,SolarRadiationWatts/m^2,SoftwareType,DateUTC
2015-04-18 07:36:00,58.6,58.6,29.89,ESE,112,4.1,4.1,100,0.00,OVC,,0.00,0.0,WeatherDisplay:10.37,2015-04-18 12:36:00,
2015-04-18 07:41:00,58.8,57.1,29.86,SE,135,2.3,2.3,94,0.00,OVC,,0.00,0.0,WeatherDisplay:10.37,2015-04-18 12:41:00,
2015-04-18 07:47:00,58.8,57.1,29.86,SSE,158,2.3,2.3,94,0.00,OVC,,0.00,0.0,WeatherDisplay:10.37,2015-04-18 12:47:00,
2015-04-18 07:52:00,59.0,57.3,29.86,SSE,158,3.5,3.5,94,0.00,OVC,,0.00,0.0,WeatherDisplay:10.37,2015-04-18 12:52:00,
2015-04-18 07:57:00,59.2,57.5,29.86,SSW,202,2.3,2.3,94,0.00,OVC,,0.00,0.0,WeatherDisplay:10.37,2015-04-18 12:57:00,
2015-04-18 08:02:00,59.2,52.7,29.86,WNW,292,5.8,5.8,79,0.00,OVC,,0.00,0.0,WeatherDisplay:10.37,2015-04-18 13:02:00,
2015-04-18 08:07:00,59.2,57.5,29.86,West,270,1.2,1.2,94,0.00,OVC,,0.00,0.0,WeatherDisplay:10.37,2015-04-18 13:07:00,
2015-04-18 08:12:00,59.2,57.5,29.89,WNW,292,4.6,4.6,94,0.00,OVC,,0.00,0.0,WeatherDisplay:10.37,2015-04-18 13:12:00,
2015-04-18 08:17:00,59.0,57.3,29.89,WNW,292,4.6,4.6,94,0.00,OVC,,0.00,0.0,WeatherDisplay:10.37,2015-04-18 13:17:00,
2015-04-18 08:22:00,59.0,57.3,29.89,WNW,292,3.8,3.8,94,0.00,OVC,,0.00,0.0,WeatherDisplay:10.37,2015-04-18 13:22:00,
2015-04-18 08:27:00,59.0,57.3,29.89,WNW,292,3.8,3.8,94,0.00,OVC,,0.00,0.0,WeatherDisplay:10.37,2015-04-18 13:27:00,
2015-04-18 08:30:00,59.0,57.3,29.89,WNW,292,3.8,3.8,94,0.00,OVC,,0.00,0.0,WeatherDisplay:10.37,2015-04-18 13:30:00,
2015-04-18 08:32:00,59.0,57.3,29.89,WNW,292,3.8,3.8,94,0.00,OVC,,0.00,0.0,WeatherDisplay:10.37,2015-04-18 13:32:00,
2015-04-18 08:38:00,59.0,57.3,29.89,WNW,292,3.8,3.8,94,0.00,OVC,,0.00,0.0,WeatherDisplay:10.37,2015-04-18 13:38:00,
2015-04-18 09:30:00,59.0,57.3,29.89,WNW,292,3.8,3.8,94,0.00,OVC,,0.00,0.0,WeatherDisplay:10.37,2015-04-18 14:30:00,
2015-04-18 09:35:00,59.0,57.3,29.89,WNW,292,3.8,3.8,94,0.00,OVC,,0.00,0.0,WeatherDisplay:10.37,2015-04-18 14:35:00,
2015-04-18 11:28:00,59.0,57.3,29.89,WNW,292,3.8,3.8,94,0.00,OVC,,0.00,0.0,WeatherDisplay:10.37,2015-04-18 16:28:00,
2015-04-18 12:04:00,59.5,54.0,29.92,NNW,338,17.7,17.7,82,0.00,OVC,,0.97,200.0,WeatherDisplay:10.37,2015-04-18 17:04:00,
2015-04-18 12:09:00,59.7,58.3,29.92,North,0,3.5,3.5,95,0.00,OVC,,0.97,200.0,WeatherDisplay:10.37,2015-04-18 17:09:00,
2015-04-18 12:14:00,60.1,58.6,29.92,WNW,292,2.3,2.3,95,0.00,OVC,,0.97,300.0,WeatherDisplay:10.37,2015-04-18 17:14:00,
2015-04-18 12:19:00,60.3,58.8,29.92,NW,315,2.3,0.0,95,0.00,OVC,,0.97,300.0,WeatherDisplay:10.37,2015-04-18 17:19:00,
2015-04-18 12:24:00,60.4,59.0,29.92,SE,135,1.2,0.0,95,0.00,OVC,,0.97,200.0,WeatherDisplay:10.37,2015-04-18 17:24:00,
2015-04-18 12:29:00,60.4,59.0,29.92,North,0,2.3,2.3,95,0.00,OVC,,0.97,400.0,WeatherDisplay:10.37,2015-04-18 17:29:00,
2015-04-18 12:34:00,60.8,59.4,29.92,North,0,3.5,3.5,95,0.00,OVC,,0.97,400.0,WeatherDisplay:10.37,2015-04-18 17:34:00,
2015-04-18 12:39:00,61.0,59.5,29.92,NNW,338,1.2,0.0,95,0.00,OVC,,0.97,300.0,WeatherDisplay:10.37,2015-04-18 17:39:00,
2015-04-18 12:44:00,61.7,60.3,29.92,SSE,158,2.3,2.3,95,0.00,SCT,OVC,0.97,100.0,WeatherDisplay:10.37,2015-04-18 17:44:00,
2015-04-18 12:49:00,61.7,60.3,29.92,SSE,158,1.2,0.0,95,0.00,CLR,OVC,0.97,100.0,WeatherDisplay:10.37,2015-04-18 17:49:00,
2015-04-18 12:51:00,61.5,60.1,29.92,SSE,158,0.0,0.0,95,0.00,CLR,OVC,0.97,100.0,WeatherDisplay:10.37,2015-04-18 17:51:00,
2015-04-18 12:54:00,61.5,60.1,29.92,SSE,158,0.0,0.0,95,0.00,CLR,OVC,0.97,100.0,WeatherDisplay:10.37,2015-04-18 17:54:00,
2015-04-18 12:59:00,61.5,60.1,29.92,SSE,158,0.0,0.0,95,0.00,CLR,OVC,0.97,100.0,WeatherDisplay:10.37,2015-04-18 17:59:00,
2015-04-18 13:50:00,61.5,60.1,29.92,SSE,158,0.0,0.0,95,0.00,CLR,OVC,0.97,100.0,WeatherDisplay:10.37,2015-04-18 18:50:00,
2015-04-18 13:55:00,61.5,60.1,29.92,SSE,158,0.0,0.0,95,0.00,CLR,OVC,0.97,100.0,WeatherDisplay:10.37,2015-04-18 18:55:00,
2015-04-18 14:02:00,61.9,55.6,29.89,SSE,158,2.4,3.1,80,0.00,OVC,,0.97,300.0,WeatherDisplay:10.37,2015-04-18 19:02:00,
2015-04-18 14:07:00,62.4,60.7,29.86,East,90,5.8,5.8,94,0.00,CLR,OVC,0.97,400.0,WeatherDisplay:10.37,2015-04-18 19:07:00,
2015-04-18 14:12:00,62.6,60.8,29.86,ESE,112,7.9,7.9,94,0.05,CLR,OVC,1.03,400.0,WeatherDisplay:10.37,2015-04-18 19:12:00,
2015-04-18 14:17:00,62.4,60.7,29.86,ESE,112,10.4,10.4,94,0.05,CLR,OVC,1.03,300.0,WeatherDisplay:10.37,2015-04-18 19:17:00,
2015-04-18 14:22:00,62.8,61.0,29.89,East,90,5.8,5.8,94,0.05,CLR,OVC,1.03,400.0,WeatherDisplay:10.37,2015-04-18 19:22:00,
2015-04-18 14:27:00,63.3,61.6,29.89,ENE,68,4.6,4.6,94,0.05,CLR,OVC,1.03,1100.0,WeatherDisplay:10.37,2015-04-18 19:27:00,
2015-04-18 14:30:00,63.3,61.3,29.89,NE,45,6.9,6.9,93,0.05,CLR,OVC,1.03,800.0,WeatherDisplay:10.37,2015-04-18 19:30:00,
2015-04-18 14:32:00,63.3,61.3,29.89,NE,45,6.9,6.9,93,0.05,CLR,OVC,1.03,800.0,WeatherDisplay:10.37,2015-04-18 19:32:00,
2015-04-18 14:37:00,63.3,61.3,29.89,NE,45,6.9,6.9,93,0.05,CLR,OVC,1.03,800.0,WeatherDisplay:10.37,2015-04-18 19:37:00,
2015-04-18 15:01:00,63.3,61.3,29.89,NE,45,6.9,6.9,93,0.05,CLR,OVC,1.03,800.0,WeatherDisplay:10.37,2015-04-18 20:01:00,
2015-04-18 15:29:00,63.3,61.3,29.89,NE,45,6.9,6.9,93,0.05,CLR,OVC,1.03,800.0,WeatherDisplay:10.37,2015-04-18 20:29:00,
2015-04-18 15:34:00,63.3,61.3,29.89,NE,45,6.9,6.9,93,0.05,CLR,OVC,1.03,800.0,WeatherDisplay:10.37,2015-04-18 20:34:00,
2015-04-18 15:39:00,63.3,61.3,29.89,NE,45,6.9,6.9,93,0.05,CLR,OVC,1.03,800.0,WeatherDisplay:10.37,2015-04-18 20:39:00,
2015-04-18 15:54:00,63.3,61.3,29.89,NE,45,6.9,6.9,93,0.05,CLR,OVC,1.03,800.0,WeatherDisplay:10.37,2015-04-18 20:54:00,
2015-04-18 17:22:00,69.6,58.2,29.83,NE,45,8.1,8.1,67,0.00,OVC,,1.03,200.0,WeatherDisplay:10.37,2015-04-18 22:22:00,
2015-04-18 17:27:00,70.0,65.3,29.83,ESE,112,9.2,9.2,85,0.00,BKN,OVC,1.03,200.0,WeatherDisplay:10.37,2015-04-18 22:27:00,
2015-04-18 17:33:00,69.6,64.9,29.83,East,90,8.1,8.1,85,0.00,BKN,OVC,1.03,200.0,WeatherDisplay:10.37,2015-04-18 22:33:00,
2015-04-18 17:38:00,70.0,64.6,29.80,ESE,112,6.9,6.9,83,0.00,BKN,OVC,1.03,100.0,WeatherDisplay:10.37,2015-04-18 22:38:00,
2015-04-18 17:43:00,70.7,66.0,29.80,ESE,112,8.1,8.1,85,0.00,BKN,OVC,1.03,100.0,WeatherDisplay:10.37,2015-04-18 22:43:00,
2015-04-18 17:48:00,70.7,65.6,29.80,ENE,68,8.1,8.1,84,0.00,BKN,OVC,1.03,100.0,WeatherDisplay:10.37,2015-04-18 22:48:00,
2015-04-18 17:53:00,70.0,64.6,29.80,ENE,68,8.1,8.1,83,0.00,BKN,OVC,1.03,100.0,WeatherDisplay:10.37,2015-04-18 22:53:00,
2015-04-18 17:58:00,69.8,64.4,29.80,East,90,6.9,6.9,83,0.00,BKN,OVC,1.03,0.0,WeatherDisplay:10.37,2015-04-18 22:58:00,
2015-04-18 18:03:00,69.4,63.7,29.80,ENE,68,6.9,6.9,82,0.00,OVC,,1.03,0.0,WeatherDisplay:10.37,2015-04-18 23:03:00,
2015-04-18 18:08:00,69.1,63.4,29.80,ESE,112,9.2,9.2,82,0.00,OVC,,1.03,0.0,WeatherDisplay:10.37,2015-04-18 23:08:00,
2015-04-18 18:13:00,68.5,62.5,29.80,NE,45,8.1,8.1,81,0.00,OVC,,1.03,0.0,WeatherDisplay:10.37,2015-04-18 23:13:00,
2015-04-18 18:18:00,68.5,62.8,29.80,ESE,112,8.1,8.1,82,0.00,OVC,,1.03,0.0,WeatherDisplay:10.37,2015-04-18 23:18:00,
2015-04-18 18:23:00,68.4,62.3,29.80,East,90,9.4,9.4,81,0.00,OVC,,1.03,0.0,WeatherDisplay:10.37,2015-04-18 23:23:00,
2015-04-18 18:28:00,68.5,62.8,29.80,East,90,5.8,5.8,82,0.00,OVC,,1.03,0.0,WeatherDisplay:10.37,2015-04-18 23:28:00,
2015-04-18 18:33:00,69.1,63.7,29.80,East,90,4.6,5.3,83,0.00,OVC,,1.03,0.0,WeatherDisplay:10.37,2015-04-18 23:33:00,
2015-04-18 18:38:00,69.3,63.9,29.80,SE,135,8.6,8.6,83,0.00,OVC,,1.03,0.0,WeatherDisplay:10.37,2015-04-18 23:38:00,
2015-04-18 18:43:00,68.7,63.0,29.80,ESE,112,8.1,8.1,82,0.00,OVC,,1.03,0.0,WeatherDisplay:10.37,2015-04-18 23:43:00,
2015-04-18 18:48:00,68.5,62.8,29.80,ESE,112,6.9,6.9,82,0.00,OVC,,1.03,0.0,WeatherDisplay:10.37,2015-04-18 23:48:00,
2015-04-18 18:53:00,68.4,62.6,29.80,SE,135,5.8,5.8,82,0.00,OVC,,1.03,0.0,WeatherDisplay:10.37,2015-04-18 23:53:00,
2015-04-18 18:58:00,68.2,62.5,29.80,ENE,68,4.6,4.6,82,0.00,OVC,,1.03,0.0,WeatherDisplay:10.37,2015-04-18 23:58:00,
2015-04-18 19:03:00,68.0,62.3,29.80,ESE,112,4.6,4.6,82,0.00,OVC,,1.03,0.0,WeatherDisplay:10.37,2015-04-19 00:03:00,
2015-04-18 19:08:00,67.6,61.9,29.80,ESE,112,6.9,6.9,82,0.00,OVC,,1.03,0.0,WeatherDisplay:10.37,2015-04-19 00:08:00,
2015-04-18 19:13:00,67.5,61.8,29.80,East,90,3.6,3.6,82,0.00,OVC,,1.03,0.0,WeatherDisplay:10.37,2015-04-19 00:13:00,
2015-04-18 19:18:00,67.3,61.6,29.80,ESE,112,5.8,5.8,82,0.00,OVC,,1.03,0.0,WeatherDisplay:10.37,2015-04-19 00:18:00,
2015-04-18 19:23:00,67.3,61.6,29.80,ESE,112,5.8,5.8,82,0.00,OVC,,1.03,0.0,WeatherDisplay:10.37,2015-04-19 00:23:00,
2015-04-18 20:18:00,67.3,61.6,29.80,ESE,112,5.8,5.8,82,0.00,OVC,,1.03,0.0,WeatherDisplay:10.37,2015-04-19 01:18:00,
2015-04-18 20:23:00,67.3,61.6,29.80,ESE,112,5.8,5.8,82,0.00,OVC,,1.03,0.0,WeatherDisplay:10.37,2015-04-19 01:23:00,
2015-04-18 21:02:00,58.1,48.0,29.80,ESE,112,5.3,5.3,69,0.00,CLR,OVC,1.03,0.0,WeatherDisplay:10.37,2015-04-19 02:02:00,
2015-04-18 21:07:00,57.9,54.4,29.80,ESE,112,4.6,4.6,88,0.00,CLR,OVC,1.03,0.0,WeatherDisplay:10.37,2015-04-19 02:07:00,
2015-04-18 21:12:00,57.9,54.7,29.77,East,90,2.3,2.3,89,0.00,CLR,OVC,1.03,0.0,WeatherDisplay:10.37,2015-04-19 02:12:00,
2015-04-18 21:17:00,57.6,54.3,29.77,East,90,3.5,3.5,89,0.00,CLR,OVC,1.03,0.0,WeatherDisplay:10.37,2015-04-19 02:17:00,
2015-04-18 21:22:00,57.4,54.2,29.77,ESE,112,1.2,1.2,89,0.00,CLR,OVC,1.03,0.0,WeatherDisplay:10.37,2015-04-19 02:22:00,
2015-04-18 21:27:00,57.0,54.1,29.77,SE,135,2.3,2.3,90,0.00,CLR,OVC,1.03,0.0,WeatherDisplay:10.37,2015-04-19 02:27:00,
2015-04-18 21:30:00,56.8,53.9,29.77,SSE,158,2.1,2.1,90,0.00,CLR,OVC,1.03,0.0,WeatherDisplay:10.37,2015-04-19 02:30:00,
2015-04-18 21:32:00,56.8,53.9,29.77,SSE,158,2.1,2.1,90,0.00,CLR,OVC,1.03,0.0,WeatherDisplay:10.37,2015-04-19 02:32:00,
2015-04-18 21:37:00,56.8,53.9,29.77,SSE,158,2.1,2.1,90,0.00,CLR,OVC,1.03,0.0,WeatherDisplay:10.37,2015-04-19 02:37:00,